^^
Datos históricos de la estación: Murcia-Puente Tocinos
Diario Informe para Agosto 22, 2019 Unidades:  Ingés    Métrico   Ambas
Diario Semanal Mensual Anual
  Máxima: Mínima: Promedio:
Temperatura: 57 °F 43.9 °F 50.9 °F
Punto de rocio: 36.1 °F 26.6 °F 30 °F
Humedad: 52.7% 35.6% 45%
Velocidad viento: 11.8mph 0mph 5.8mph
Racha viento: 23mph - -
Viento- - OSO
Presión: 30.1 in 29.8 in -
Precipitación: 0 in    
 
 
Tabla de datos para Agosto 22, 2019
Hora Temperatura Punto de rocio Presión Viento Velocidad viento Racha viento Humedad Intensidad lluvia(por hora) Nubes
00:04 48.7 °F 29.5 °F 30.1 in Oeste 5.9 mph 11 mph 47% 0 in
00:09 48.7 °F 29.3 °F 30.1 in Oeste 6.5 mph 11.8 mph 47% 0 in
00:14 48.6 °F 29.1 °F 30.1 in Oeste 6.9 mph 12 mph 47% 0 in
00:19 48.6 °F 29.1 °F 30.1 in Oeste 6.6 mph 10.4 mph 47% 0 in
00:24 48.7 °F 29.5 °F 30.1 in Oeste 6.4 mph 10.4 mph 47% 0 in
00:29 48.7 °F 29.5 °F 30.1 in Oeste 6.1 mph 10 mph 47% 0 in
00:34 48.7 °F 29.5 °F 30.1 in OSO 5.9 mph 9 mph 47% 0 in
00:39 48.7 °F 29.5 °F 30.1 in OSO 5 mph 11.4 mph 47% 0 in
00:44 48.7 °F 29.3 °F 30.1 in OSO 4.3 mph 12 mph 47% 0 in
00:49 48.6 °F 29.3 °F 30.1 in Oeste 5 mph 9.2 mph 47.4% 0 in
00:54 48.2 °F 29.5 °F 30.1 in Oeste 5.4 mph 10.4 mph 48% 0 in
00:59 48 °F 29.1 °F 30.1 in Oeste 5.4 mph 10.4 mph 48% 0 in
01:04 48 °F 29.3 °F 30.1 in Oeste 5.4 mph 10 mph 48% 0 in
01:09 48.2 °F 29.5 °F 30.1 in Oeste 5.7 mph 10 mph 48% 0 in
01:14 48.2 °F 29.3 °F 30.1 in Oeste 5.9 mph 10.4 mph 48% 0 in
01:19 48 °F 29.3 °F 30.1 in Oeste 5.9 mph 10 mph 48% 0 in
01:24 48 °F 29.1 °F 30.1 in Oeste 5.9 mph 9.2 mph 48% 0 in
01:29 48 °F 29.1 °F 30.1 in Oeste 5.6 mph 9 mph 48% 0 in
01:34 47.8 °F 29.1 °F 30.1 in Oeste 5.4 mph 8 mph 48% 0 in
01:39 47.8 °F 29.1 °F 30.1 in ONO 5.3 mph 9.2 mph 48% 0 in
01:44 47.8 °F 28.6 °F 30.1 in ONO 5.2 mph 9.2 mph 47% 0 in
01:49 48 °F 28.8 °F 30.1 in ONO 5.8 mph 9.2 mph 47% 0 in
01:54 47.8 °F 28.6 °F 30.1 in NO 6.2 mph 9 mph 47% 0 in
01:59 47.7 °F 28.4 °F 30.1 in NO 5.5 mph 8.5 mph 47% 0 in
02:04 47.8 °F 28.6 °F 30.1 in ONO 5.2 mph 10.4 mph 47% 0 in
02:09 47.8 °F 28.6 °F 30.1 in ONO 5.7 mph 10 mph 47% 0 in
02:14 47.7 °F 28.6 °F 30.1 in Oeste 5.9 mph 9.2 mph 47.5% 0 in
02:19 47.5 °F 28.8 °F 30.1 in OSO 4.8 mph 7 mph 48% 0 in
02:24 47.3 °F 28.6 °F 30.1 in Oeste 4 mph 5.9 mph 48% 0 in
02:29 47.3 °F 28.6 °F 30.1 in Oeste 3.5 mph 6.9 mph 48% 0 in
02:34 47.3 °F 28.6 °F 30.1 in Oeste 3.1 mph 9.2 mph 48% 0 in
02:39 47.5 °F 28.8 °F 30.1 in OSO 3.8 mph 9 mph 48% 0 in
02:44 47.3 °F 28.9 °F 30.1 in OSO 4.3 mph 8 mph 48.8% 0 in
02:49 46.9 °F 28.9 °F 30.1 in Oeste 4.1 mph 7 mph 49.2% 0 in
02:54 46.8 °F 29.1 °F 30.1 in ONO 4 mph 8.1 mph 50% 0 in
02:59 46.9 °F 28.9 °F 30.1 in ONO 4 mph 8.5 mph 49.6% 0 in
03:04 46.9 °F 28.9 °F 30.1 in OSO 4 mph 10.7 mph 49.6% 0 in
03:09 46.8 °F 28.9 °F 30.1 in OSO 5.1 mph 11.2 mph 50% 0 in
03:14 46.6 °F 28.9 °F 30.1 in OSO 5.9 mph 12 mph 50% 0 in
03:19 46.6 °F 28.9 °F 30.1 in Oeste 5.9 mph 12 mph 50% 0 in
03:24 46.8 °F 28.8 °F 30.1 in OSO 5.9 mph 7 mph 49.6% 0 in
03:29 46.8 °F 28.6 °F 30.1 in SO 4.8 mph 7 mph 49% 0 in
03:34 47.1 °F 28.6 °F 30.1 in Sur 4 mph 6.4 mph 48.2% 0 in
03:39 47.5 °F 28.6 °F 30.1 in Sur 4.2 mph 9.2 mph 47.5% 0 in
03:44 47.8 °F 28.6 °F 30.1 in SO 4.3 mph 10.7 mph 47% 0 in
03:49 47.8 °F 28.6 °F 30.1 in Oeste 4.8 mph 11 mph 47% 0 in
03:54 47.7 °F 28.6 °F 30 in OSO 5.2 mph 8.5 mph 47.4% 0 in
03:59 47.3 °F 28.6 °F 30 in Oeste 4.4 mph 9 mph 48% 0 in
04:04 46.9 °F 28.4 °F 30.1 in Oeste 4 mph 8.1 mph 48% 0 in
04:09 46.9 °F 28.2 °F 30.1 in Oeste 3.8 mph 11.5 mph 48% 0 in
04:14 46.8 °F 28.4 °F 30.1 in Oeste 3.6 mph 12 mph 48.7% 0 in
04:19 46.8 °F 28.2 °F 30.1 in OSO 4.2 mph 11.8 mph 48.1% 0 in
04:24 46.9 °F 28.2 °F 30 in Oeste 4.7 mph 12 mph 48% 0 in
04:29 46.8 °F 28 °F 30 in OSO 5.1 mph 12.7 mph 48.1% 0 in
04:34 46.8 °F 28.4 °F 30 in OSO 5.4 mph 13 mph 48.5% 0 in
04:39 46.8 °F 28 °F 30 in OSO 4.7 mph 10 mph 48% 0 in
04:44 46.8 °F 28 °F 30 in NO 4.3 mph 10 mph 48% 0 in
04:49 46.6 °F 28 °F 30 in NO 3.9 mph 6 mph 48.3% 0 in
04:54 46.2 °F 28.2 °F 30 in ONO 3.6 mph 6.9 mph 49% 0 in
04:59 46 °F 28 °F 30 in SE 3.2 mph 7 mph 49.3% 0 in
05:04 46 °F 28.4 °F 30 in SE 2.9 mph 6 mph 50% 0 in
05:09 45.9 °F 28.2 °F 30 in Sur 2.6 mph 6.9 mph 50% 0 in
05:14 45.9 °F 28.4 °F 30 in SSE 2.4 mph 7 mph 50.1% 0 in
05:19 45.7 °F 28.4 °F 30 in Sur 2.7 mph 5.9 mph 50.6% 0 in
05:24 45.7 °F 28.2 °F 30 in SSO 2.9 mph 6 mph 50.4% 0 in
05:29 45.5 °F 28 °F 30 in Oeste 3.3 mph 8.1 mph 50.2% 0 in
05:34 45.7 °F 28 °F 30 in OSO 3.6 mph 8 mph 50% 0 in
05:39 45.3 °F 28.2 °F 30 in SE 3.3 mph 6.9 mph 50.8% 0 in
05:44 45.1 °F 28 °F 30 in SE 3.1 mph 7 mph 51% 0 in
05:49 45 °F 28 °F 30 in Sur 3.8 mph 8.5 mph 51.3% 0 in
05:54 45 °F 27.9 °F 30 in SSO 4.3 mph 9 mph 51% 0 in
05:59 45.1 °F 27.9 °F 30 in SO 4.9 mph 8.1 mph 50.8% 0 in
06:04 45 °F 27.5 °F 30 in SO 5.2 mph 9.2 mph 50.3% 0 in
06:09 45.1 °F 27.7 °F 30 in SO 4.9 mph 9 mph 50% 0 in
06:14 45.1 °F 27.5 °F 30 in OSO 4.7 mph 8.5 mph 49.6% 0 in
06:19 45.3 °F 27.3 °F 30 in Oeste 5 mph 13.8 mph 49% 0 in
06:24 45.7 °F 27.1 °F 30 in Oeste 5.2 mph 19.6 mph 48% 0 in
06:29 46.6 °F 27 °F 30 in OSO 7.3 mph 20 mph 46.3% 0 in
06:34 46.9 °F 27.1 °F 30 in Oeste 8.7 mph 17 mph 45.8% 0 in
06:39 46.9 °F 26.8 °F 30 in Oeste 8.3 mph 13 mph 45.3% 0 in
06:44 46.9 °F 26.8 °F 30 in Oeste 8.1 mph 12 mph 45% 0 in
06:49 46.9 °F 26.8 °F 30 in Oeste 7.4 mph 13 mph 45% 0 in
06:54 46.9 °F 26.8 °F 30 in OSO 6.9 mph 13 mph 45% 0 in
06:59 46.9 °F 26.8 °F 30 in Oeste 6.3 mph 10.4 mph 45% 0 in
07:04 46.9 °F 26.6 °F 30 in ONO 5.9 mph 10 mph 45% 0 in
07:09 46.8 °F 27 °F 30 in Oeste 4.5 mph 6 mph 46% 0 in
07:14 46.4 °F 26.8 °F 30 in NO 3.6 mph 6 mph 46.2% 0 in
07:19 46.2 °F 26.8 °F 30 in ONO 3.9 mph 16.1 mph 46.4% 0 in
07:24 46.8 °F 26.8 °F 30 in ONO 4 mph 18.5 mph 45.4% 0 in
07:29 46.9 °F 26.8 °F 30 in ONO 7.5 mph 19 mph 45% 0 in
07:34 47.3 °F 26.6 °F 30 in ONO 10.2 mph 19 mph 44.5% 0 in
07:39 46.9 °F 26.8 °F 30 in ONO 8.7 mph 14 mph 45% 0 in
07:44 46.8 °F 26.8 °F 30 in ONO 7.6 mph 10 mph 45.4% 0 in
07:49 46.2 °F 26.6 °F 30 in ONO 6.6 mph 10.7 mph 46.1% 0 in
07:54 45.9 °F 26.8 °F 30 in NO 5.9 mph 11 mph 47% 0 in
07:59 45.5 °F 26.8 °F 30 in NO 5.5 mph 8 mph 47.9% 0 in
08:04 45.1 °F 27 °F 30 in NO 5.2 mph 6 mph 48.6% 0 in
08:09 45 °F 27 °F 30 in NO 3.9 mph 6 mph 49% 0 in
08:14 44.8 °F 27 °F 30 in ONO 2.9 mph 5 mph 49.2% 0 in
08:19 44.6 °F 27.1 °F 30 in ONO 2.9 mph 5 mph 50% 0 in
08:24 44.4 °F 27.1 °F 30 in OSO 2.9 mph 5 mph 50.4% 0 in
08:29 44.2 °F 27.7 °F 30 in SE 2.4 mph 5 mph 51.8% 0 in
08:34 44.2 °F 27.7 °F 30 in ESE 2 mph 3.5 mph 52% 0 in
08:39 44.1 °F 27.5 °F 30 in ESE 1.9 mph 4 mph 51.9% 0 in
08:44 43.9 °F 27.3 °F 30 in SSE 1.8 mph 5 mph 52% 0 in
08:49 43.9 °F 27.3 °F 30 in Sur 2.2 mph 5 mph 52% 0 in
08:54 44.2 °F 27.9 °F 30 in Oeste 2.4 mph 3.6 mph 52.4% 0 in
08:59 44.4 °F 27.9 °F 30 in ONO 1.7 mph 4 mph 51.7% 0 in
09:04 45.1 °F 28 °F 30 in ONO 1.4 mph 2.4 mph 50.7% 0 in
09:09 45.9 °F 28.2 °F 30 in NO 1.6 mph 4.7 mph 49.9% 0 in
09:14 46 °F 27.9 °F 30 in ESE 1.8 mph 5 mph 49% 0 in
09:19 46 °F 28 °F 30 in SE 2.4 mph 6.2 mph 49% 0 in
09:24 45.9 °F 27.9 °F 30 in SSE 2.9 mph 6 mph 49% 0 in
09:29 45.9 °F 27.9 °F 30 in SSE 2.9 mph 5 mph 49.1% 0 in
09:34 46 °F 27.9 °F 30 in SSO 2.9 mph 5.2 mph 48.8% 0 in
09:39 46.4 °F 28 °F 30 in ONO 2.4 mph 5 mph 48.4% 0 in
09:44 46.6 °F 28 °F 30 in ONO 2 mph 5 mph 48.1% 0 in
09:49 46.8 °F 28.2 °F 30 in ONO 2 mph 5 mph 48.5% 0 in
09:54 46.8 °F 28.6 °F 30 in ONO 2 mph 5 mph 49% 0 in
09:59 46.6 °F 28.4 °F 30 in ONO 2.2 mph 5 mph 49% 0 in
10:04 46.8 °F 28.6 °F 30 in Oeste 2.4 mph 5.2 mph 49% 0 in
10:09 46.8 °F 29.3 °F 30 in NO 2.4 mph 5.9 mph 50.3% 0 in
10:14 46.8 °F 29.3 °F 30 in ONO 2.4 mph 6 mph 50.4% 0 in
10:19 46.8 °F 29.1 °F 30 in Oeste 2.7 mph 5.2 mph 50% 0 in
10:24 46.9 °F 29.1 °F 30 in ONO 2.9 mph 5 mph 50% 0 in
10:29 46.9 °F 29.7 °F 30 in ONO 2.6 mph 4 mph 50.9% 0 in
10:34 46.9 °F 29.7 °F 30 in ONO 2.4 mph 4.6 mph 50.9% 0 in
10:39 47.1 °F 28.9 °F 30 in OSO 2.4 mph 6.9 mph 49.1% 0 in
10:44 47.5 °F 29.3 °F 30 in Oeste 2.4 mph 7 mph 49.3% 0 in
10:49 47.5 °F 29.1 °F 30 in ONO 2.4 mph 5 mph 48.7% 0 in
10:54 47.7 °F 28.4 °F 30 in ONO 2.4 mph 5 mph 47.2% 0 in
10:59 47.8 °F 28.8 °F 30 in ONO 2.1 mph 5 mph 47.3% 0 in
11:04 48 °F 29.1 °F 30 in OSO 2 mph 3.5 mph 47.5% 0 in
11:09 48.4 °F 30.4 °F 30 in SSE 1.9 mph 4 mph 49.6% 0 in
11:14 48.6 °F 30.7 °F 30 in SSE 1.8 mph 4 mph 50% 0 in
11:19 48.4 °F 30.7 °F 30 in SSE 1.8 mph 4 mph 50.3% 0 in
11:24 48.6 °F 30.7 °F 30 in SSE 1.8 mph 3 mph 50.1% 0 in
11:29 48.6 °F 30.6 °F 30 in SSE 0.7 mph 3.6 mph 49.6% 0 in
11:34 48.9 °F 29.8 °F 30 in Calm   5.9 mph 47.5% 0 in
11:39 49.3 °F 29.5 °F 30 in Oeste 1.7 mph 6.9 mph 46.1% 0 in
11:44 49.8 °F 29.1 °F 30 in OSO 3.1 mph 10.7 mph 44.8% 0 in
11:49 50.4 °F 29.3 °F 30 in Oeste 3.8 mph 11 mph 44% 0 in
11:54 50.5 °F 29.5 °F 30 in Oeste 4.3 mph 8 mph 44% 0 in
11:59 50.9 °F 29.5 °F 30 in OSO 4.3 mph 8.1 mph 43.5% 0 in
12:04 51.4 °F 29.5 °F 30 in OSO 4.3 mph 8 mph 42.7% 0 in
12:09 51.8 °F 29.7 °F 30 in OSO 4.3 mph 7 mph 42.3% 0 in
12:14 52.2 °F 29.8 °F 30 in OSO 4.3 mph 8.1 mph 41.9% 0 in
12:19 52.5 °F 29.5 °F 30 in OSO 4.3 mph 8 mph 41% 0 in
12:24 52.9 °F 29.5 °F 30 in OSO 4.3 mph 11.4 mph 40.6% 0 in
12:29 53.2 °F 29.5 °F 30 in OSO 5 mph 12 mph 40% 0 in
12:34 53.4 °F 29.7 °F 30 in OSO 5.4 mph 12 mph 39.9% 0 in
12:39 53.8 °F 29.1 °F 30 in OSO 5.4 mph 14 mph 38.6% 0 in
12:44 54 °F 28.9 °F 30 in OSO 5.4 mph 14 mph 37.9% 0 in
12:49 54.1 °F 28.9 °F 30 in OSO 6.6 mph 14 mph 37.9% 0 in
12:54 54.1 °F 28.6 °F 30 in OSO 7.6 mph 15 mph 37.2% 0 in
12:59 54.1 °F 28.4 °F 30 in OSO 7.5 mph 15 mph 37% 0 in
13:04 54.3 °F 28.6 °F 30 in OSO 7.4 mph 15 mph 37% 0 in
13:09 54.3 °F 28.6 °F 30 in OSO 8 mph 15 mph 36.9% 0 in
13:14 54.3 °F 28.6 °F 30 in OSO 8.5 mph 15.2 mph 36.9% 0 in
13:19 54.5 °F 28.6 °F 30 in OSO 8 mph 15 mph 36.9% 0 in
13:24 54.7 °F 28.6 °F 30 in OSO 7.6 mph 15 mph 36.5% 0 in
13:29 54.9 °F 28.8 °F 30 in SO 7.6 mph 15 mph 36.7% 0 in
13:34 55 °F 28.9 °F 30 in SO 7.6 mph 14 mph 36.6% 0 in
13:39 55 °F 28.9 °F 29.9 in OSO 7.2 mph 14 mph 36.7% 0 in
13:44 55 °F 29.3 °F 29.9 in SO 6.9 mph 14 mph 37% 0 in
13:49 55.2 °F 29.3 °F 29.9 in OSO 6.9 mph 12.7 mph 37% 0 in
13:54 55.4 °F 29.5 °F 29.9 in OSO 6.9 mph 13 mph 36.9% 0 in
13:59 55.8 °F 28.9 °F 29.9 in OSO 7.3 mph 16.3 mph 35.6% 0 in
14:04 55.9 °F 29.3 °F 29.9 in Oeste 7.6 mph 16 mph 36% 0 in
14:09 55.9 °F 29.3 °F 29.9 in Oeste 8.1 mph 14 mph 36% 0 in
14:14 55.9 °F 29.3 °F 29.9 in SO 8.5 mph 14 mph 36% 0 in
14:19 55.8 °F 29.1 °F 29.9 in SSO 7.6 mph 13 mph 36% 0 in
14:24 55.6 °F 28.9 °F 29.9 in SSO 6.9 mph 13 mph 36% 0 in
14:29 55.2 °F 29.1 °F 29.9 in SSO 7.8 mph 13 mph 36.4% 0 in
14:34 55.2 °F 29.5 °F 29.9 in SSO 8.5 mph 13 mph 37% 0 in
14:39 55.2 °F 29.7 °F 29.9 in SO 7.5 mph 13 mph 37.3% 0 in
14:44 55.4 °F 29.7 °F 29.9 in SO 6.9 mph 13.8 mph 37.4% 0 in
14:49 55.4 °F 29.5 °F 29.9 in SO 7.2 mph 14 mph 37% 0 in
14:54 55.6 °F 29.7 °F 29.9 in SO 7.4 mph 12 mph 37% 0 in
14:59 55.6 °F 29.7 °F 29.9 in SO 7.1 mph 14.5 mph 37% 0 in
15:04 55.6 °F 29.7 °F 29.9 in SO 6.9 mph 15 mph 37% 0 in
15:09 55.6 °F 29.7 °F 29.9 in SO 7.6 mph 13 mph 37% 0 in
15:14 55.4 °F 29.5 °F 29.9 in SO 8.1 mph 13 mph 37% 0 in
15:19 55.6 °F 29.7 °F 29.9 in SO 7.1 mph 13.8 mph 37% 0 in
15:24 55.8 °F 29.8 °F 29.9 in OSO 6.4 mph 15 mph 37% 0 in
15:29 56.3 °F 30 °F 29.9 in Oeste 7 mph 15.2 mph 36.4% 0 in
15:34 56.8 °F 30 °F 29.9 in Oeste 7.4 mph 20.7 mph 36% 0 in
15:39 56.8 °F 30 °F 29.9 in Oeste 8.4 mph 21 mph 35.8% 0 in
15:44 57 °F 30.2 °F 29.9 in Oeste 9.2 mph 18 mph 36% 0 in
15:49 57 °F 30.2 °F 29.9 in ONO 8.9 mph 15.2 mph 35.9% 0 in
15:54 57 °F 30.4 °F 29.9 in ONO 8.7 mph 16.3 mph 36% 0 in
15:59 56.8 °F 30.2 °F 29.9 in ONO 9.6 mph 19.7 mph 36% 0 in
16:04 56.8 °F 30 °F 29.9 in ONO 10 mph 20 mph 36% 0 in
16:09 56.8 °F 30 °F 29.9 in ONO 10.4 mph 19 mph 36% 0 in
16:14 56.8 °F 30 °F 29.9 in ONO 10.7 mph 19 mph 36% 0 in
16:19 56.8 °F 30.2 °F 29.9 in ONO 10.3 mph 19 mph 36% 0 in
16:24 57 °F 30.4 °F 29.9 in ONO 10 mph 20.7 mph 36% 0 in
16:29 57 °F 30.4 °F 29.9 in ONO 10.1 mph 21 mph 36% 0 in
16:34 57 °F 30.4 °F 29.9 in Oeste 10.2 mph 14 mph 36% 0 in
16:39 57 °F 30.4 °F 29.9 in ONO 8 mph 15.9 mph 36% 0 in
16:44 57 °F 30.4 °F 29.9 in ONO 6.4 mph 19 mph 36% 0 in
16:49 57 °F 30.4 °F 29.9 in ONO 8.3 mph 19 mph 36% 0 in
16:54 57 °F 30.4 °F 29.9 in NO 9.7 mph 16.8 mph 36% 0 in
16:59 57 °F 30.4 °F 29.9 in ONO 9.7 mph 17.5 mph 36% 0 in
17:04 57 °F 30.4 °F 29.9 in ONO 9.7 mph 17.5 mph 36% 0 in
17:09 57 °F 30.4 °F 29.9 in ONO 10.3 mph 17 mph 36.1% 0 in
17:14 57 °F 30.4 °F 29.9 in ONO 10.7 mph 16 mph 36.1% 0 in
17:19 57 °F 30.7 °F 29.9 in OSO 10.1 mph 16 mph 36.7% 0 in
17:24 56.7 °F 31.1 °F 29.9 in SO 9.7 mph 13 mph 37.7% 0 in
17:29 56.1 °F 31.1 °F 29.9 in SO 6.4 mph 8 mph 38.4% 0 in
17:34 55.9 °F 31.3 °F 29.9 in SO 4.3 mph 7 mph 39.2% 0 in
17:39 55.8 °F 31.6 °F 29.9 in SO 4.3 mph 7.4 mph 40% 0 in
17:44 55.6 °F 31.6 °F 29.9 in SO 4.3 mph 7 mph 40% 0 in
17:49 55.6 °F 31.6 °F 29.9 in Oeste 4.2 mph 6.9 mph 39.9% 0 in
17:54 55.8 °F 31.1 °F 29.9 in Oeste 4 mph 12.3 mph 38.9% 0 in
17:59 55.9 °F 30.2 °F 29.9 in Oeste 4.9 mph 23 mph 37.2% 0 in
18:04 56.3 °F 29.7 °F 29.9 in ONO 5.4 mph 23 mph 36% 0 in
18:09 56.3 °F 29.7 °F 29.9 in ONO 8.9 mph 22 mph 36% 0 in
18:14 55.9 °F 30 °F 29.9 in ONO 11.8 mph 16.1 mph 36.8% 0 in
18:19 55.8 °F 30 °F 29.9 in ONO 9.6 mph 16 mph 37.1% 0 in
18:24 55.8 °F 30.4 °F 29.9 in ONO 8.1 mph 14 mph 37.8% 0 in
18:29 55.6 °F 30.4 °F 29.9 in ONO 6.2 mph 20.7 mph 38% 0 in
18:34 55.6 °F 30.4 °F 29.9 in ONO 4.7 mph 21 mph 38% 0 in
18:39 55.4 °F 30.2 °F 29.9 in ONO 7.6 mph 17.3 mph 38% 0 in
18:44 55.2 °F 30.6 °F 29.9 in ONO 9.7 mph 15 mph 38.7% 0 in
18:49 55.2 °F 30.7 °F 29.9 in ONO 8.3 mph 15 mph 39% 0 in
18:54 55 °F 30.6 °F 29.9 in ONO 7.4 mph 15 mph 39% 0 in
18:59 54.9 °F 30.9 °F 29.9 in Oeste 6.7 mph 13 mph 39.8% 0 in
19:04 54.9 °F 30.9 °F 29.9 in Oeste 6.4 mph 10 mph 40% 0 in
19:09 54.7 °F 30.9 °F 29.9 in Oeste 5.4 mph 10.7 mph 40.3% 0 in
19:14 54.5 °F 31.3 °F 29.9 in Oeste 4.7 mph 12.7 mph 41% 0 in
19:19 54.5 °F 31.3 °F 29.9 in Oeste 5.7 mph 13 mph 41% 0 in
19:24 54.5 °F 31.3 °F 29.9 in OSO 6.4 mph 16.3 mph 41% 0 in
19:29 54.5 °F 31.3 °F 29.9 in OSO 6.4 mph 16.1 mph 41% 0 in
19:34 54.7 °F 31.5 °F 29.9 in Oeste 6.4 mph 16 mph 41% 0 in
19:39 54.7 °F 31.5 °F 29.9 in Oeste 7.1 mph 12 mph 41% 0 in
19:44 54.7 °F 31.5 °F 29.9 in Oeste 7.6 mph 12 mph 41% 0 in
19:49 54.7 °F 31.5 °F 29.9 in OSO 6.6 mph 10 mph 41% 0 in
19:54 54.7 °F 31.5 °F 29.9 in OSO 5.9 mph 10 mph 41% 0 in
19:59 54.9 °F 31.6 °F 29.9 in OSO 6.1 mph 14 mph 41.3% 0 in
20:04 54.9 °F 32.2 °F 29.9 in Oeste 6.2 mph 15 mph 42% 0 in
20:09 54.9 °F 32.7 °F 29.9 in ONO 7.5 mph 21.3 mph 43% 0 in
20:14 54.9 °F 32.7 °F 29.9 in ONO 8.5 mph 21 mph 43% 0 in
20:19 54.9 °F 33.3 °F 29.9 in Oeste 9.8 mph 23 mph 44% 0 in
20:24 54.7 °F 33.3 °F 29.9 in Oeste 10.7 mph 23 mph 44% 0 in
20:29 54.7 °F 33.4 °F 29.9 in Oeste 10.1 mph 19 mph 44.4% 0 in
20:34 54.5 °F 33.6 °F 29.9 in Oeste 9.7 mph 19 mph 45% 0 in
20:39 54.5 °F 33.6 °F 29.9 in ONO 10.8 mph 19.7 mph 45% 0 in
20:44 54.3 °F 33.8 °F 29.9 in ONO 11.8 mph 20 mph 45.8% 0 in
20:49 54.3 °F 34 °F 29.9 in Oeste 11.1 mph 20 mph 46% 0 in
20:54 54.1 °F 33.8 °F 29.9 in ONO 10.7 mph 17.8 mph 46% 0 in
20:59 54.1 °F 34 °F 29.9 in Oeste 10.3 mph 19.6 mph 46.2% 0 in
21:04 54.1 °F 34.3 °F 29.9 in Oeste 10 mph 20 mph 47% 0 in
21:09 54.1 °F 34.3 °F 29.9 in Oeste 10.9 mph 20 mph 47% 0 in
21:14 54.1 °F 34.3 °F 29.9 in Oeste 11.4 mph 19 mph 47% 0 in
21:19 54 °F 34.2 °F 29.9 in ONO 10.6 mph 18.5 mph 47% 0 in
21:24 54 °F 34.5 °F 29.9 in ONO 10 mph 19 mph 47.8% 0 in
21:29 54 °F 34.7 °F 29.9 in Oeste 10 mph 18.4 mph 48% 0 in
21:34 53.8 °F 34.5 °F 29.9 in Oeste 10 mph 21.9 mph 48% 0 in
21:39 53.8 °F 34.5 °F 29.9 in Oeste 10.1 mph 22 mph 48% 0 in
21:44 53.8 °F 34.9 °F 29.9 in Oeste 10.2 mph 16.1 mph 48.6% 0 in
21:49 53.6 °F 34.9 °F 29.9 in Oeste 9.2 mph 19.6 mph 49% 0 in
21:54 53.6 °F 34.9 °F 29.9 in Oeste 8.5 mph 20 mph 49% 0 in
21:59 53.4 °F 34.9 °F 29.9 in Oeste 8.2 mph 15 mph 49% 0 in
22:04 53.4 °F 34.7 °F 29.9 in ONO 8.1 mph 20.7 mph 49% 0 in
22:09 53.4 °F 34.7 °F 29.8 in Oeste 8.1 mph 21 mph 49% 0 in
22:14 53.4 °F 34.7 °F 29.8 in Oeste 8.1 mph 16 mph 49% 0 in
22:19 53.4 °F 34.7 °F 29.8 in Oeste 7.7 mph 14 mph 49% 0 in
22:24 53.4 °F 35.1 °F 29.8 in OSO 7.4 mph 10 mph 49.7% 0 in
22:29 53.4 °F 35.2 °F 29.8 in OSO 5.8 mph 10 mph 50% 0 in
22:34 53.2 °F 35.1 °F 29.9 in OSO 4.7 mph 8.1 mph 50% 0 in
22:39 53.2 °F 35.1 °F 29.9 in OSO 4.1 mph 8 mph 50% 0 in
22:44 53.2 °F 35.1 °F 29.9 in SO 3.6 mph 9.2 mph 50% 0 in
22:49 53.1 °F 34.9 °F 29.9 in SO 4.5 mph 9.2 mph 50% 0 in
22:54 53.1 °F 34.9 °F 29.8 in SSO 5.2 mph 9 mph 49.8% 0 in
22:59 53.1 °F 34.7 °F 29.8 in OSO 3.9 mph 6.2 mph 49.8% 0 in
23:04 52.9 °F 34.7 °F 29.8 in SO 3.1 mph 6 mph 50% 0 in
23:09 52.7 °F 34.3 °F 29.8 in SE 3 mph 5 mph 49.2% 0 in
23:14 52.5 °F 34 °F 29.8 in SE 2.9 mph 5.2 mph 49% 0 in
23:19 52.3 °F 34 °F 29.8 in SSE 3 mph 7.4 mph 49.6% 0 in
23:24 52.3 °F 34.2 °F 29.8 in SE 3.1 mph 7 mph 50% 0 in
23:29 52.2 °F 34.2 °F 29.8 in SSE 3.4 mph 6 mph 50% 0 in
23:34 52.2 °F 34.5 °F 29.9 in SO 3.6 mph 5 mph 51% 0 in
23:39 52.2 °F 34.5 °F 29.9 in Sur 2.7 mph 5 mph 51% 0 in
23:44 52.3 °F 35.6 °F 29.9 in NNE 2 mph 15 mph 52.7% 0 in
23:49 52.9 °F 36.1 °F 29.9 in ONO 4.5 mph 18.4 mph 52.6% 0 in
23:54 53.2 °F 36.1 °F 29.8 in ONO 6.4 mph 18 mph 52% 0 in
23:59 53.4 °F 36.1 °F 29.8 in NO 8.7 mph 17.3 mph 52% 0 in
Murcia-Puente Tocinos, Espa?a
Compliments of Weather Underground - 3.25 mb

La estación de MeteoMurcia.com, publica sus datos en los siguientes proyectos:

Weather Underground PWS IMURCIAP2 Meteoclimatic www.awekas.at

W3Counter
Web Analytics